sensor_id;sensor_type;location;lat;lon;timestamp;P1;durP1;ratioP1;P2;durP2;ratioP2
75718;SDS011;64340;48.534;-3.036;2022-11-15T00:00:17;2.80;;;1.00;;
75718;SDS011;64340;48.534;-3.036;2022-11-15T00:02:42;2.72;;;1.20;;
75718;SDS011;64340;48.534;-3.036;2022-11-15T00:05:08;2.50;;;1.02;;
75718;SDS011;64340;48.534;-3.036;2022-11-15T00:07:34;4.28;;;1.30;;
75718;SDS011;64340;48.534;-3.036;2022-11-15T00:10:00;3.88;;;1.10;;
75718;SDS011;64340;48.534;-3.036;2022-11-15T00:12:26;3.38;;;1.15;;
75718;SDS011;64340;48.534;-3.036;2022-11-15T00:14:53;3.05;;;1.20;;
75718;SDS011;64340;48.534;-3.036;2022-11-15T00:17:19;6.53;;;1.40;;
75718;SDS011;64340;48.534;-3.036;2022-11-15T00:19:44;3.72;;;0.98;;
75718;SDS011;64340;48.534;-3.036;2022-11-15T00:22:10;2.58;;;1.00;;
75718;SDS011;64340;48.534;-3.036;2022-11-15T00:24:36;3.00;;;1.20;;
75718;SDS011;64340;48.534;-3.036;2022-11-15T00:27:02;3.13;;;1.13;;
75718;SDS011;64340;48.534;-3.036;2022-11-15T00:29:28;3.10;;;1.20;;
75718;SDS011;64340;48.534;-3.036;2022-11-15T00:31:53;2.03;;;0.93;;
75718;SDS011;64340;48.534;-3.036;2022-11-15T00:34:19;3.80;;;1.02;;
75718;SDS011;64340;48.534;-3.036;2022-11-15T00:36:45;4.55;;;1.35;;
75718;SDS011;64340;48.534;-3.036;2022-11-15T00:39:10;4.50;;;1.08;;
75718;SDS011;64340;48.534;-3.036;2022-11-15T00:41:36;4.03;;;1.20;;
75718;SDS011;64340;48.534;-3.036;2022-11-15T00:44:02;2.85;;;0.98;;
75718;SDS011;64340;48.534;-3.036;2022-11-15T00:46:28;2.67;;;1.20;;
75718;SDS011;64340;48.534;-3.036;2022-11-15T00:48:53;2.90;;;1.20;;
75718;SDS011;64340;48.534;-3.036;2022-11-15T00:51:19;1.85;;;0.90;;
75718;SDS011;64340;48.534;-3.036;2022-11-15T00:53:45;3.20;;;0.90;;
75718;SDS011;64340;48.534;-3.036;2022-11-15T00:56:11;2.53;;;0.90;;
75718;SDS011;64340;48.534;-3.036;2022-11-15T00:58:36;2.97;;;1.13;;
75718;SDS011;64340;48.534;-3.036;2022-11-15T01:01:12;2.35;;;0.80;;
75718;SDS011;64340;48.534;-3.036;2022-11-15T01:03:39;2.58;;;0.93;;
75718;SDS011;64340;48.534;-3.036;2022-11-15T01:06:06;3.38;;;0.80;;
75718;SDS011;64340;48.534;-3.036;2022-11-15T01:08:32;2.50;;;0.88;;
75718;SDS011;64340;48.534;-3.036;2022-11-15T01:11:02;3.13;;;0.98;;
75718;SDS011;64340;48.534;-3.036;2022-11-15T01:13:29;3.63;;;0.98;;
75718;SDS011;64340;48.534;-3.036;2022-11-15T01:15:56;2.20;;;0.70;;
75718;SDS011;64340;48.534;-3.036;2022-11-15T01:18:22;2.33;;;0.77;;
75718;SDS011;64340;48.534;-3.036;2022-11-15T01:20:48;2.28;;;0.80;;
75718;SDS011;64340;48.534;-3.036;2022-11-15T01:23:14;3.55;;;0.93;;
75718;SDS011;64340;48.534;-3.036;2022-11-15T01:25:39;2.45;;;0.90;;
75718;SDS011;64340;48.534;-3.036;2022-11-15T01:28:05;2.97;;;0.90;;
75718;SDS011;64340;48.534;-3.036;2022-11-15T01:30:31;2.33;;;0.75;;
75718;SDS011;64340;48.534;-3.036;2022-11-15T01:32:57;3.53;;;0.70;;
75718;SDS011;64340;48.534;-3.036;2022-11-15T01:35:23;2.25;;;0.70;;
75718;SDS011;64340;48.534;-3.036;2022-11-15T01:37:49;2.20;;;0.75;;
75718;SDS011;64340;48.534;-3.036;2022-11-15T01:40:14;1.80;;;0.60;;
75718;SDS011;64340;48.534;-3.036;2022-11-15T01:42:40;2.95;;;0.73;;
75718;SDS011;64340;48.534;-3.036;2022-11-15T01:45:09;2.45;;;0.80;;
75718;SDS011;64340;48.534;-3.036;2022-11-15T01:47:44;2.40;;;0.50;;
75718;SDS011;64340;48.534;-3.036;2022-11-15T01:50:17;2.28;;;0.88;;
75718;SDS011;64340;48.534;-3.036;2022-11-15T01:52:47;2.25;;;0.82;;
75718;SDS011;64340;48.534;-3.036;2022-11-15T01:55:14;2.13;;;0.63;;
75718;SDS011;64340;48.534;-3.036;2022-11-15T01:57:45;2.08;;;0.65;;
75718;SDS011;64340;48.534;-3.036;2022-11-15T02:02:40;2.67;;;0.70;;
75718;SDS011;64340;48.534;-3.036;2022-11-15T02:05:06;3.00;;;0.95;;
75718;SDS011;64340;48.534;-3.036;2022-11-15T02:07:32;2.03;;;0.70;;
75718;SDS011;64340;48.534;-3.036;2022-11-15T02:10:07;1.67;;;0.60;;
75718;SDS011;64340;48.534;-3.036;2022-11-15T02:12:39;2.97;;;0.80;;
75718;SDS011;64340;48.534;-3.036;2022-11-15T02:15:05;2.05;;;0.60;;
75718;SDS011;64340;48.534;-3.036;2022-11-15T02:17:37;2.60;;;0.70;;
75718;SDS011;64340;48.534;-3.036;2022-11-15T02:30:47;2.35;;;0.60;;
75718;SDS011;64340;48.534;-3.036;2022-11-15T02:36:38;1.42;;;0.55;;
75718;SDS011;64340;48.534;-3.036;2022-11-15T02:42:11;1.92;;;0.60;;
75718;SDS011;64340;48.534;-3.036;2022-11-15T02:45:19;2.78;;;0.70;;
75718;SDS011;64340;48.534;-3.036;2022-11-15T02:47:50;2.22;;;0.60;;
75718;SDS011;64340;48.534;-3.036;2022-11-15T02:50:20;1.42;;;0.60;;
75718;SDS011;64340;48.534;-3.036;2022-11-15T02:52:48;1.88;;;0.68;;
75718;SDS011;64340;48.534;-3.036;2022-11-15T02:55:34;2.25;;;0.80;;
75718;SDS011;64340;48.534;-3.036;2022-11-15T03:09:31;1.38;;;0.40;;
75718;SDS011;64340;48.534;-3.036;2022-11-15T03:15:17;1.63;;;0.50;;
75718;SDS011;64340;48.534;-3.036;2022-11-15T03:17:55;1.30;;;0.50;;
75718;SDS011;64340;48.534;-3.036;2022-11-15T03:20:29;1.35;;;0.47;;
75718;SDS011;64340;48.534;-3.036;2022-11-15T03:23:05;2.75;;;0.50;;
75718;SDS011;64340;48.534;-3.036;2022-11-15T03:25:34;0.95;;;0.40;;
75718;SDS011;64340;48.534;-3.036;2022-11-15T03:28:03;1.58;;;0.43;;
75718;SDS011;64340;48.534;-3.036;2022-11-15T03:30:32;1.98;;;0.40;;
75718;SDS011;64340;48.534;-3.036;2022-11-15T03:32:59;1.60;;;0.60;;
75718;SDS011;64340;48.534;-3.036;2022-11-15T03:35:30;1.38;;;0.50;;
75718;SDS011;64340;48.534;-3.036;2022-11-15T03:38:14;0.88;;;0.35;;
75718;SDS011;64340;48.534;-3.036;2022-11-15T03:40:55;1.55;;;0.50;;
75718;SDS011;64340;48.534;-3.036;2022-11-15T03:46:13;1.38;;;0.40;;
75718;SDS011;64340;48.534;-3.036;2022-11-15T03:48:46;2.28;;;0.60;;
75718;SDS011;64340;48.534;-3.036;2022-11-15T03:51:19;2.08;;;0.45;;
75718;SDS011;64340;48.534;-3.036;2022-11-15T03:53:45;2.25;;;0.60;;
75718;SDS011;64340;48.534;-3.036;2022-11-15T03:56:11;1.52;;;0.55;;
75718;SDS011;64340;48.534;-3.036;2022-11-15T03:58:37;1.45;;;0.60;;
75718;SDS011;64340;48.534;-3.036;2022-11-15T04:01:03;1.02;;;0.50;;
75718;SDS011;64340;48.534;-3.036;2022-11-15T04:03:29;1.27;;;0.50;;
75718;SDS011;64340;48.534;-3.036;2022-11-15T04:05:55;1.05;;;0.30;;
75718;SDS011;64340;48.534;-3.036;2022-11-15T04:08:20;2.17;;;0.40;;
75718;SDS011;64340;48.534;-3.036;2022-11-15T04:10:48;0.90;;;0.40;;
75718;SDS011;64340;48.534;-3.036;2022-11-15T04:13:14;1.83;;;0.50;;
75718;SDS011;64340;48.534;-3.036;2022-11-15T04:15:40;1.40;;;0.32;;
75718;SDS011;64340;48.534;-3.036;2022-11-15T04:18:06;1.65;;;0.40;;
75718;SDS011;64340;48.534;-3.036;2022-11-15T04:20:31;1.33;;;0.40;;
75718;SDS011;64340;48.534;-3.036;2022-11-15T04:23:17;1.38;;;0.30;;
75718;SDS011;64340;48.534;-3.036;2022-11-15T04:26:04;0.77;;;0.30;;
75718;SDS011;64340;48.534;-3.036;2022-11-15T04:28:32;0.73;;;0.32;;
75718;SDS011;64340;48.534;-3.036;2022-11-15T04:30:58;0.40;;;0.22;;
75718;SDS011;64340;48.534;-3.036;2022-11-15T04:33:24;0.70;;;0.30;;
75718;SDS011;64340;48.534;-3.036;2022-11-15T04:35:50;1.48;;;0.38;;
75718;SDS011;64340;48.534;-3.036;2022-11-15T04:38:34;2.13;;;0.73;;
75718;SDS011;64340;48.534;-3.036;2022-11-15T04:41:00;1.27;;;0.32;;
75718;SDS011;64340;48.534;-3.036;2022-11-15T04:43:27;1.00;;;0.40;;
75718;SDS011;64340;48.534;-3.036;2022-11-15T04:45:53;2.72;;;0.47;;
75718;SDS011;64340;48.534;-3.036;2022-11-15T04:48:19;1.38;;;0.32;;
75718;SDS011;64340;48.534;-3.036;2022-11-15T04:50:47;2.17;;;0.30;;
75718;SDS011;64340;48.534;-3.036;2022-11-15T04:53:13;0.98;;;0.20;;
75718;SDS011;64340;48.534;-3.036;2022-11-15T04:55:39;1.85;;;0.32;;
75718;SDS011;64340;48.534;-3.036;2022-11-15T04:58:05;1.17;;;0.32;;
75718;SDS011;64340;48.534;-3.036;2022-11-15T05:00:30;0.60;;;0.20;;
75718;SDS011;64340;48.534;-3.036;2022-11-15T05:02:56;0.98;;;0.30;;
75718;SDS011;64340;48.534;-3.036;2022-11-15T05:05:58;0.95;;;0.25;;
75718;SDS011;64340;48.534;-3.036;2022-11-15T05:08:24;0.88;;;0.30;;
75718;SDS011;64340;48.534;-3.036;2022-11-15T05:10:50;0.77;;;0.30;;
75718;SDS011;64340;48.534;-3.036;2022-11-15T05:13:16;1.33;;;0.35;;
75718;SDS011;64340;48.534;-3.036;2022-11-15T05:15:42;1.00;;;0.40;;
75718;SDS011;64340;48.534;-3.036;2022-11-15T05:18:08;0.88;;;0.32;;
75718;SDS011;64340;48.534;-3.036;2022-11-15T05:20:34;1.02;;;0.28;;
75718;SDS011;64340;48.534;-3.036;2022-11-15T05:23:00;0.47;;;0.20;;
75718;SDS011;64340;48.534;-3.036;2022-11-15T05:25:26;0.82;;;0.25;;
75718;SDS011;64340;48.534;-3.036;2022-11-15T05:27:52;1.40;;;0.40;;
75718;SDS011;64340;48.534;-3.036;2022-11-15T05:30:18;1.60;;;0.40;;
75718;SDS011;64340;48.534;-3.036;2022-11-15T05:32:44;1.77;;;0.30;;
75718;SDS011;64340;48.534;-3.036;2022-11-15T05:35:12;0.60;;;0.20;;
75718;SDS011;64340;48.534;-3.036;2022-11-15T05:37:51;1.67;;;0.30;;
75718;SDS011;64340;48.534;-3.036;2022-11-15T05:40:16;0.60;;;0.20;;
75718;SDS011;64340;48.534;-3.036;2022-11-15T05:42:42;0.77;;;0.28;;
75718;SDS011;64340;48.534;-3.036;2022-11-15T05:45:09;0.68;;;0.30;;
75718;SDS011;64340;48.534;-3.036;2022-11-15T05:47:36;1.00;;;0.28;;
75718;SDS011;64340;48.534;-3.036;2022-11-15T05:50:03;6.05;;;0.47;;
75718;SDS011;64340;48.534;-3.036;2022-11-15T05:52:30;0.88;;;0.40;;
75718;SDS011;64340;48.534;-3.036;2022-11-15T05:55:03;2.58;;;0.60;;
75718;SDS011;64340;48.534;-3.036;2022-11-15T05:57:30;11.35;;;3.10;;
75718;SDS011;64340;48.534;-3.036;2022-11-15T05:59:56;11.18;;;2.30;;
75718;SDS011;64340;48.534;-3.036;2022-11-15T06:02:21;7.03;;;2.20;;
75718;SDS011;64340;48.534;-3.036;2022-11-15T06:04:47;8.45;;;1.98;;
75718;SDS011;64340;48.534;-3.036;2022-11-15T06:07:13;5.28;;;1.55;;
75718;SDS011;64340;48.534;-3.036;2022-11-15T06:09:39;14.95;;;4.15;;
75718;SDS011;64340;48.534;-3.036;2022-11-15T06:12:04;21.23;;;5.45;;
75718;SDS011;64340;48.534;-3.036;2022-11-15T06:14:30;13.68;;;3.70;;
75718;SDS011;64340;48.534;-3.036;2022-11-15T06:16:56;18.00;;;3.85;;
75718;SDS011;64340;48.534;-3.036;2022-11-15T06:19:22;13.18;;;3.33;;
75718;SDS011;64340;48.534;-3.036;2022-11-15T06:21:47;11.07;;;3.30;;
75718;SDS011;64340;48.534;-3.036;2022-11-15T06:24:13;13.45;;;3.33;;
75718;SDS011;64340;48.534;-3.036;2022-11-15T06:26:39;11.68;;;3.55;;
75718;SDS011;64340;48.534;-3.036;2022-11-15T06:29:05;13.77;;;3.00;;
75718;SDS011;64340;48.534;-3.036;2022-11-15T06:31:30;14.93;;;2.90;;
75718;SDS011;64340;48.534;-3.036;2022-11-15T06:33:56;9.20;;;2.78;;
75718;SDS011;64340;48.534;-3.036;2022-11-15T06:36:22;12.10;;;2.60;;
75718;SDS011;64340;48.534;-3.036;2022-11-15T06:38:48;22.90;;;4.50;;
75718;SDS011;64340;48.534;-3.036;2022-11-15T06:41:14;25.35;;;6.22;;
75718;SDS011;64340;48.534;-3.036;2022-11-15T06:43:41;17.15;;;4.05;;
75718;SDS011;64340;48.534;-3.036;2022-11-15T06:46:07;15.75;;;3.70;;
75718;SDS011;64340;48.534;-3.036;2022-11-15T06:48:33;19.67;;;4.35;;
75718;SDS011;64340;48.534;-3.036;2022-11-15T06:51:00;12.15;;;3.22;;
75718;SDS011;64340;48.534;-3.036;2022-11-15T06:53:27;12.27;;;2.90;;
75718;SDS011;64340;48.534;-3.036;2022-11-15T06:55:57;10.57;;;2.88;;
75718;SDS011;64340;48.534;-3.036;2022-11-15T06:58:25;11.02;;;2.42;;
75718;SDS011;64340;48.534;-3.036;2022-11-15T07:00:51;8.18;;;2.35;;
75718;SDS011;64340;48.534;-3.036;2022-11-15T07:03:17;7.45;;;1.95;;
75718;SDS011;64340;48.534;-3.036;2022-11-15T07:05:50;6.90;;;1.77;;
75718;SDS011;64340;48.534;-3.036;2022-11-15T07:08:20;7.32;;;1.90;;
75718;SDS011;64340;48.534;-3.036;2022-11-15T07:10:47;5.30;;;1.50;;
75718;SDS011;64340;48.534;-3.036;2022-11-15T07:13:13;6.03;;;1.45;;
75718;SDS011;64340;48.534;-3.036;2022-11-15T07:15:38;6.13;;;1.55;;
75718;SDS011;64340;48.534;-3.036;2022-11-15T07:18:04;4.90;;;1.27;;
75718;SDS011;64340;48.534;-3.036;2022-11-15T07:20:30;8.85;;;1.48;;
75718;SDS011;64340;48.534;-3.036;2022-11-15T07:23:02;5.53;;;1.50;;
75718;SDS011;64340;48.534;-3.036;2022-11-15T07:25:29;6.65;;;1.33;;
75718;SDS011;64340;48.534;-3.036;2022-11-15T07:27:58;4.05;;;1.23;;
75718;SDS011;64340;48.534;-3.036;2022-11-15T07:30:25;5.30;;;0.90;;
75718;SDS011;64340;48.534;-3.036;2022-11-15T07:32:55;4.47;;;0.90;;
75718;SDS011;64340;48.534;-3.036;2022-11-15T07:35:26;5.72;;;1.02;;
75718;SDS011;64340;48.534;-3.036;2022-11-15T07:37:59;3.95;;;1.30;;
75718;SDS011;64340;48.534;-3.036;2022-11-15T07:40:27;3.60;;;0.80;;
75718;SDS011;64340;48.534;-3.036;2022-11-15T07:43:00;2.08;;;0.77;;
75718;SDS011;64340;48.534;-3.036;2022-11-15T07:45:30;3.95;;;1.52;;
75718;SDS011;64340;48.534;-3.036;2022-11-15T07:47:58;2.40;;;0.60;;
75718;SDS011;64340;48.534;-3.036;2022-11-15T07:50:24;3.97;;;0.90;;
75718;SDS011;64340;48.534;-3.036;2022-11-15T07:52:57;3.85;;;1.08;;
75718;SDS011;64340;48.534;-3.036;2022-11-15T07:55:25;3.97;;;0.88;;
75718;SDS011;64340;48.534;-3.036;2022-11-15T07:57:52;3.20;;;0.88;;
75718;SDS011;64340;48.534;-3.036;2022-11-15T08:00:18;3.30;;;0.85;;
75718;SDS011;64340;48.534;-3.036;2022-11-15T08:02:44;4.13;;;1.08;;
75718;SDS011;64340;48.534;-3.036;2022-11-15T08:05:10;2.20;;;0.80;;
75718;SDS011;64340;48.534;-3.036;2022-11-15T08:07:37;2.20;;;0.60;;
75718;SDS011;64340;48.534;-3.036;2022-11-15T08:10:03;2.20;;;0.77;;
75718;SDS011;64340;48.534;-3.036;2022-11-15T08:12:32;2.22;;;0.80;;
75718;SDS011;64340;48.534;-3.036;2022-11-15T08:14:57;2.97;;;0.75;;
75718;SDS011;64340;48.534;-3.036;2022-11-15T08:17:23;1.85;;;0.50;;
75718;SDS011;64340;48.534;-3.036;2022-11-15T08:19:50;5.65;;;1.02;;
75718;SDS011;64340;48.534;-3.036;2022-11-15T08:22:16;2.67;;;0.68;;
75718;SDS011;64340;48.534;-3.036;2022-11-15T08:24:42;1.83;;;0.60;;
75718;SDS011;64340;48.534;-3.036;2022-11-15T08:27:09;2.90;;;0.60;;
75718;SDS011;64340;48.534;-3.036;2022-11-15T08:29:40;3.58;;;0.60;;
75718;SDS011;64340;48.534;-3.036;2022-11-15T08:32:10;2.90;;;0.60;;
75718;SDS011;64340;48.534;-3.036;2022-11-15T08:34:36;2.97;;;0.68;;
75718;SDS011;64340;48.534;-3.036;2022-11-15T08:37:03;3.13;;;0.75;;
75718;SDS011;64340;48.534;-3.036;2022-11-15T08:39:29;1.77;;;0.50;;
75718;SDS011;64340;48.534;-3.036;2022-11-15T08:41:55;1.45;;;0.60;;
75718;SDS011;64340;48.534;-3.036;2022-11-15T08:44:21;2.47;;;0.60;;
75718;SDS011;64340;48.534;-3.036;2022-11-15T08:46:47;2.42;;;0.68;;
75718;SDS011;64340;48.534;-3.036;2022-11-15T08:49:13;1.92;;;0.75;;
75718;SDS011;64340;48.534;-3.036;2022-11-15T08:51:38;1.67;;;0.73;;
75718;SDS011;64340;48.534;-3.036;2022-11-15T08:54:04;1.88;;;0.63;;
75718;SDS011;64340;48.534;-3.036;2022-11-15T08:56:30;2.53;;;0.65;;
75718;SDS011;64340;48.534;-3.036;2022-11-15T08:58:56;2.10;;;0.60;;
75718;SDS011;64340;48.534;-3.036;2022-11-15T09:01:22;1.85;;;0.57;;
75718;SDS011;64340;48.534;-3.036;2022-11-15T09:03:48;3.13;;;0.60;;
75718;SDS011;64340;48.534;-3.036;2022-11-15T09:06:14;1.88;;;0.55;;
75718;SDS011;64340;48.534;-3.036;2022-11-15T09:08:40;0.95;;;0.40;;
75718;SDS011;64340;48.534;-3.036;2022-11-15T09:11:07;2.65;;;0.60;;
75718;SDS011;64340;48.534;-3.036;2022-11-15T09:13:34;3.15;;;0.90;;
75718;SDS011;64340;48.534;-3.036;2022-11-15T09:16:02;7.25;;;2.85;;
75718;SDS011;64340;48.534;-3.036;2022-11-15T09:18:28;5.57;;;1.73;;
75718;SDS011;64340;48.534;-3.036;2022-11-15T09:20:55;4.43;;;1.73;;
75718;SDS011;64340;48.534;-3.036;2022-11-15T09:23:22;7.10;;;1.67;;
75718;SDS011;64340;48.534;-3.036;2022-11-15T09:25:49;5.82;;;1.40;;
75718;SDS011;64340;48.534;-3.036;2022-11-15T09:28:15;4.07;;;1.40;;
75718;SDS011;64340;48.534;-3.036;2022-11-15T09:30:40;4.65;;;2.00;;
75718;SDS011;64340;48.534;-3.036;2022-11-15T09:33:10;5.45;;;1.70;;
75718;SDS011;64340;48.534;-3.036;2022-11-15T09:35:36;4.10;;;1.40;;
75718;SDS011;64340;48.534;-3.036;2022-11-15T09:38:02;3.58;;;1.58;;
75718;SDS011;64340;48.534;-3.036;2022-11-15T09:40:29;5.10;;;1.40;;
75718;SDS011;64340;48.534;-3.036;2022-11-15T09:46:08;3.55;;;1.05;;
75718;SDS011;64340;48.534;-3.036;2022-11-15T09:51:19;7.60;;;1.30;;
75718;SDS011;64340;48.534;-3.036;2022-11-15T09:56:49;4.70;;;1.15;;
75718;SDS011;64340;48.534;-3.036;2022-11-15T10:04:22;5.03;;;1.50;;
75718;SDS011;64340;48.534;-3.036;2022-11-15T10:07:00;7.78;;;1.73;;
75718;SDS011;64340;48.534;-3.036;2022-11-15T10:09:42;5.53;;;1.58;;
75718;SDS011;64340;48.534;-3.036;2022-11-15T10:12:14;5.88;;;2.08;;
75718;SDS011;64340;48.534;-3.036;2022-11-15T10:14:40;5.90;;;1.92;;
75718;SDS011;64340;48.534;-3.036;2022-11-15T10:20:01;6.00;;;1.52;;
75718;SDS011;64340;48.534;-3.036;2022-11-15T10:25:21;7.03;;;1.63;;
75718;SDS011;64340;48.534;-3.036;2022-11-15T10:30:35;5.43;;;1.42;;
75718;SDS011;64340;48.534;-3.036;2022-11-15T10:39:10;4.50;;;1.52;;
75718;SDS011;64340;48.534;-3.036;2022-11-15T10:46:27;5.50;;;1.25;;
75718;SDS011;64340;48.534;-3.036;2022-11-15T10:48:55;6.50;;;1.52;;
75718;SDS011;64340;48.534;-3.036;2022-11-15T10:51:44;5.65;;;1.30;;
75718;SDS011;64340;48.534;-3.036;2022-11-15T10:54:14;3.80;;;1.13;;
75718;SDS011;64340;48.534;-3.036;2022-11-15T10:56:50;5.38;;;1.10;;
75718;SDS011;64340;48.534;-3.036;2022-11-15T10:59:39;5.05;;;1.75;;
75718;SDS011;64340;48.534;-3.036;2022-11-15T11:05:00;4.70;;;1.33;;
75718;SDS011;64340;48.534;-3.036;2022-11-15T11:07:30;5.00;;;1.33;;
75718;SDS011;64340;48.534;-3.036;2022-11-15T11:10:01;4.53;;;1.20;;
75718;SDS011;64340;48.534;-3.036;2022-11-15T11:12:44;5.00;;;1.27;;
75718;SDS011;64340;48.534;-3.036;2022-11-15T11:15:11;6.10;;;1.25;;
75718;SDS011;64340;48.534;-3.036;2022-11-15T11:20:38;5.70;;;1.00;;
75718;SDS011;64340;48.534;-3.036;2022-11-15T11:25:46;8.68;;;1.42;;
75718;SDS011;64340;48.534;-3.036;2022-11-15T11:36:56;4.57;;;1.23;;
75718;SDS011;64340;48.534;-3.036;2022-11-15T11:39:33;7.10;;;1.65;;
75718;SDS011;64340;48.534;-3.036;2022-11-15T11:50:24;7.65;;;1.50;;
75718;SDS011;64340;48.534;-3.036;2022-11-15T11:55:24;7.82;;;1.38;;
75718;SDS011;64340;48.534;-3.036;2022-11-15T12:00:52;7.05;;;1.00;;
75718;SDS011;64340;48.534;-3.036;2022-11-15T12:03:27;5.28;;;1.10;;
75718;SDS011;64340;48.534;-3.036;2022-11-15T12:06:01;4.20;;;0.98;;
75718;SDS011;64340;48.534;-3.036;2022-11-15T12:14:38;5.95;;;0.98;;
75718;SDS011;64340;48.534;-3.036;2022-11-15T12:17:08;6.72;;;1.42;;
75718;SDS011;64340;48.534;-3.036;2022-11-15T12:19:36;3.47;;;0.85;;
75718;SDS011;64340;48.534;-3.036;2022-11-15T12:22:11;4.70;;;1.02;;
75718;SDS011;64340;48.534;-3.036;2022-11-15T12:30:02;7.43;;;1.25;;
75718;SDS011;64340;48.534;-3.036;2022-11-15T12:32:38;7.43;;;1.73;;
75718;SDS011;64340;48.534;-3.036;2022-11-15T12:35:12;6.50;;;1.10;;
75718;SDS011;64340;48.534;-3.036;2022-11-15T12:37:49;7.90;;;1.00;;
75718;SDS011;64340;48.534;-3.036;2022-11-15T12:40:26;6.03;;;1.08;;
75718;SDS011;64340;48.534;-3.036;2022-11-15T12:45:38;4.65;;;1.20;;
75718;SDS011;64340;48.534;-3.036;2022-11-15T12:58:40;4.75;;;1.00;;
75718;SDS011;64340;48.534;-3.036;2022-11-15T13:07:04;5.78;;;0.82;;
75718;SDS011;64340;48.534;-3.036;2022-11-15T13:17:03;4.25;;;1.10;;
75718;SDS011;64340;48.534;-3.036;2022-11-15T13:19:53;5.40;;;0.90;;
75718;SDS011;64340;48.534;-3.036;2022-11-15T13:25:27;4.68;;;0.70;;
75718;SDS011;64340;48.534;-3.036;2022-11-15T13:30:40;4.72;;;0.68;;
75718;SDS011;64340;48.534;-3.036;2022-11-15T13:33:16;2.78;;;0.82;;
75718;SDS011;64340;48.534;-3.036;2022-11-15T13:35:46;3.30;;;1.05;;
75718;SDS011;64340;48.534;-3.036;2022-11-15T13:38:53;4.97;;;1.63;;
75718;SDS011;64340;48.534;-3.036;2022-11-15T13:43:45;5.10;;;1.80;;
75718;SDS011;64340;48.534;-3.036;2022-11-15T13:46:18;4.28;;;1.48;;
75718;SDS011;64340;48.534;-3.036;2022-11-15T13:48:44;4.85;;;1.55;;
75718;SDS011;64340;48.534;-3.036;2022-11-15T13:51:26;4.85;;;1.50;;
75718;SDS011;64340;48.534;-3.036;2022-11-15T13:56:42;7.95;;;1.83;;
75718;SDS011;64340;48.534;-3.036;2022-11-15T13:59:17;5.63;;;1.38;;
75718;SDS011;64340;48.534;-3.036;2022-11-15T14:01:52;3.42;;;1.20;;
75718;SDS011;64340;48.534;-3.036;2022-11-15T14:04:21;4.63;;;1.55;;
75718;SDS011;64340;48.534;-3.036;2022-11-15T14:06:50;3.50;;;1.13;;
75718;SDS011;64340;48.534;-3.036;2022-11-15T14:09:30;4.15;;;1.48;;
75718;SDS011;64340;48.534;-3.036;2022-11-15T14:11:59;4.60;;;1.52;;
75718;SDS011;64340;48.534;-3.036;2022-11-15T14:14:27;3.92;;;1.15;;
75718;SDS011;64340;48.534;-3.036;2022-11-15T14:16:55;3.00;;;1.20;;
75718;SDS011;64340;48.534;-3.036;2022-11-15T14:22:07;3.13;;;1.08;;
75718;SDS011;64340;48.534;-3.036;2022-11-15T14:24:33;3.45;;;1.30;;
75718;SDS011;64340;48.534;-3.036;2022-11-15T14:27:15;3.92;;;1.30;;
75718;SDS011;64340;48.534;-3.036;2022-11-15T14:29:42;4.38;;;1.20;;
75718;SDS011;64340;48.534;-3.036;2022-11-15T14:32:14;4.03;;;1.13;;
75718;SDS011;64340;48.534;-3.036;2022-11-15T14:34:45;5.72;;;1.33;;
75718;SDS011;64340;48.534;-3.036;2022-11-15T14:37:19;4.72;;;1.15;;
75718;SDS011;64340;48.534;-3.036;2022-11-15T14:39:50;6.60;;;1.30;;
75718;SDS011;64340;48.534;-3.036;2022-11-15T14:42:17;6.57;;;1.65;;
75718;SDS011;64340;48.534;-3.036;2022-11-15T14:44:44;5.63;;;1.13;;
75718;SDS011;64340;48.534;-3.036;2022-11-15T14:47:10;4.55;;;1.35;;
75718;SDS011;64340;48.534;-3.036;2022-11-15T14:49:36;3.88;;;1.05;;
75718;SDS011;64340;48.534;-3.036;2022-11-15T14:52:02;9.00;;;1.67;;
75718;SDS011;64340;48.534;-3.036;2022-11-15T14:54:30;8.48;;;1.45;;
75718;SDS011;64340;48.534;-3.036;2022-11-15T14:56:55;10.88;;;1.80;;
75718;SDS011;64340;48.534;-3.036;2022-11-15T14:59:21;7.53;;;1.60;;
75718;SDS011;64340;48.534;-3.036;2022-11-15T15:01:47;4.65;;;1.42;;
75718;SDS011;64340;48.534;-3.036;2022-11-15T15:04:13;7.45;;;1.58;;
75718;SDS011;64340;48.534;-3.036;2022-11-15T15:06:39;8.48;;;1.73;;
75718;SDS011;64340;48.534;-3.036;2022-11-15T15:09:05;8.18;;;1.65;;
75718;SDS011;64340;48.534;-3.036;2022-11-15T15:11:32;9.25;;;2.10;;
75718;SDS011;64340;48.534;-3.036;2022-11-15T15:13:58;5.50;;;1.75;;
75718;SDS011;64340;48.534;-3.036;2022-11-15T15:16:26;9.40;;;1.83;;
75718;SDS011;64340;48.534;-3.036;2022-11-15T15:18:52;7.93;;;2.00;;
75718;SDS011;64340;48.534;-3.036;2022-11-15T15:21:22;7.88;;;1.90;;
75718;SDS011;64340;48.534;-3.036;2022-11-15T15:23:52;5.88;;;2.10;;
75718;SDS011;64340;48.534;-3.036;2022-11-15T15:26:21;9.13;;;2.22;;
75718;SDS011;64340;48.534;-3.036;2022-11-15T15:28:50;7.18;;;2.00;;
75718;SDS011;64340;48.534;-3.036;2022-11-15T15:31:17;5.38;;;2.20;;
75718;SDS011;64340;48.534;-3.036;2022-11-15T15:33:43;6.60;;;1.90;;
75718;SDS011;64340;48.534;-3.036;2022-11-15T15:36:13;8.45;;;2.33;;
75718;SDS011;64340;48.534;-3.036;2022-11-15T15:38:42;5.80;;;1.67;;
75718;SDS011;64340;48.534;-3.036;2022-11-15T15:41:09;8.65;;;2.17;;
75718;SDS011;64340;48.534;-3.036;2022-11-15T15:43:39;7.57;;;2.38;;
75718;SDS011;64340;48.534;-3.036;2022-11-15T15:46:14;17.48;;;3.92;;
75718;SDS011;64340;48.534;-3.036;2022-11-15T15:48:41;14.45;;;2.90;;
75718;SDS011;64340;48.534;-3.036;2022-11-15T15:51:08;7.22;;;2.15;;
75718;SDS011;64340;48.534;-3.036;2022-11-15T15:53:34;9.77;;;2.47;;
75718;SDS011;64340;48.534;-3.036;2022-11-15T15:56:00;9.65;;;2.50;;
75718;SDS011;64340;48.534;-3.036;2022-11-15T15:58:26;11.30;;;2.63;;
75718;SDS011;64340;48.534;-3.036;2022-11-15T16:00:52;6.90;;;1.88;;
75718;SDS011;64340;48.534;-3.036;2022-11-15T16:03:18;7.97;;;2.10;;
75718;SDS011;64340;48.534;-3.036;2022-11-15T16:05:45;8.10;;;1.83;;
75718;SDS011;64340;48.534;-3.036;2022-11-15T16:08:19;13.25;;;2.10;;
75718;SDS011;64340;48.534;-3.036;2022-11-15T16:10:46;12.85;;;5.10;;
75718;SDS011;64340;48.534;-3.036;2022-11-15T16:13:13;9.45;;;3.08;;
75718;SDS011;64340;48.534;-3.036;2022-11-15T16:15:39;12.30;;;4.93;;
75718;SDS011;64340;48.534;-3.036;2022-11-15T16:18:05;11.20;;;3.70;;
75718;SDS011;64340;48.534;-3.036;2022-11-15T16:23:00;12.48;;;5.18;;
75718;SDS011;64340;48.534;-3.036;2022-11-15T16:25:27;12.52;;;4.32;;
75718;SDS011;64340;48.534;-3.036;2022-11-15T16:27:53;10.65;;;4.13;;
75718;SDS011;64340;48.534;-3.036;2022-11-15T16:30:20;10.55;;;4.57;;
75718;SDS011;64340;48.534;-3.036;2022-11-15T16:32:47;12.95;;;4.07;;
75718;SDS011;64340;48.534;-3.036;2022-11-15T16:35:14;7.80;;;3.33;;
75718;SDS011;64340;48.534;-3.036;2022-11-15T16:38:01;7.45;;;3.53;;
75718;SDS011;64340;48.534;-3.036;2022-11-15T16:40:31;7.13;;;3.15;;
75718;SDS011;64340;48.534;-3.036;2022-11-15T16:42:58;9.30;;;2.90;;
75718;SDS011;64340;48.534;-3.036;2022-11-15T16:45:26;4.18;;;2.42;;
75718;SDS011;64340;48.534;-3.036;2022-11-15T16:47:55;6.82;;;2.80;;
75718;SDS011;64340;48.534;-3.036;2022-11-15T16:50:31;7.35;;;2.25;;
75718;SDS011;64340;48.534;-3.036;2022-11-15T16:53:05;11.25;;;2.83;;
75718;SDS011;64340;48.534;-3.036;2022-11-15T16:55:31;6.10;;;2.33;;
75718;SDS011;64340;48.534;-3.036;2022-11-15T16:57:58;6.50;;;2.15;;
75718;SDS011;64340;48.534;-3.036;2022-11-15T17:00:26;7.43;;;2.15;;
75718;SDS011;64340;48.534;-3.036;2022-11-15T17:02:52;10.00;;;2.58;;
75718;SDS011;64340;48.534;-3.036;2022-11-15T17:05:23;8.35;;;2.13;;
75718;SDS011;64340;48.534;-3.036;2022-11-15T17:07:51;6.38;;;1.95;;
75718;SDS011;64340;48.534;-3.036;2022-11-15T17:10:21;5.00;;;2.03;;
75718;SDS011;64340;48.534;-3.036;2022-11-15T17:12:50;6.40;;;1.98;;
75718;SDS011;64340;48.534;-3.036;2022-11-15T17:15:19;10.48;;;1.95;;
75718;SDS011;64340;48.534;-3.036;2022-11-15T17:17:51;5.50;;;1.80;;